createdAt,value
2023-02-17T00:00:20.782Z,7.04
2023-02-17T00:02:48.949Z,7.06
2023-02-17T00:05:15.970Z,7.07
2023-02-17T00:07:42.843Z,7.08
2023-02-17T00:10:10.279Z,7.08
2023-02-17T00:12:37.193Z,7.03
2023-02-17T00:15:04.586Z,7.00
2023-02-17T00:17:32.124Z,6.94
2023-02-17T00:20:00.240Z,6.93
2023-02-17T00:22:27.246Z,6.92
2023-02-17T00:24:53.905Z,6.93
2023-02-17T00:27:20.843Z,6.94
2023-02-17T00:29:47.635Z,6.97
2023-02-17T00:32:14.417Z,6.96
2023-02-17T00:34:42.663Z,6.94
2023-02-17T00:37:10.962Z,6.94
2023-02-17T00:39:37.624Z,6.93
2023-02-17T00:42:04.386Z,6.93
2023-02-17T00:44:31.160Z,6.96
2023-02-17T00:46:57.842Z,6.98
2023-02-17T00:49:26.350Z,7.02
2023-02-17T00:51:53.694Z,7.06
2023-02-17T00:54:21.677Z,7.10
2023-02-17T00:56:48.498Z,7.13
2023-02-17T00:59:15.187Z,7.15
2023-02-17T01:01:42.235Z,7.16
2023-02-17T01:04:09.706Z,7.17
2023-02-17T01:06:38.362Z,7.18
2023-02-17T01:09:09.262Z,7.17
2023-02-17T01:11:39.209Z,7.13
2023-02-17T01:14:06.372Z,7.07
2023-02-17T01:16:35.377Z,7.01
2023-02-17T01:19:02.630Z,6.94
2023-02-17T01:21:30.737Z,6.87
2023-02-17T01:23:59.265Z,6.80
2023-02-17T01:26:28.018Z,6.79
2023-02-17T01:28:56.290Z,6.79
2023-02-17T01:31:23.262Z,6.79
2023-02-17T01:33:50.297Z,6.80
2023-02-17T01:36:19.077Z,6.82
2023-02-17T01:38:46.635Z,6.81
2023-02-17T01:41:14.966Z,6.78
2023-02-17T01:43:42.079Z,6.74
2023-02-17T01:46:11.065Z,6.71
2023-02-17T01:48:42.817Z,6.69
2023-02-17T01:51:14.568Z,6.65
2023-02-17T01:53:46.746Z,6.63
2023-02-17T01:56:16.628Z,6.59
2023-02-17T01:58:47.216Z,6.59
2023-02-17T02:01:16.578Z,6.56
2023-02-17T02:03:44.027Z,6.56
2023-02-17T02:06:16.077Z,6.55
2023-02-17T02:08:49.150Z,6.51
2023-02-17T02:11:16.077Z,6.49
2023-02-17T02:13:46.077Z,6.48
2023-02-17T02:16:20.968Z,6.48
2023-02-17T02:18:59.832Z,6.49
2023-02-17T02:21:53.689Z,6.52
2023-02-17T02:24:33.401Z,6.57
2023-02-17T02:27:30.125Z,6.62
2023-02-17T02:30:20.526Z,6.67
2023-02-17T02:32:58.268Z,6.68
2023-02-17T02:35:34.316Z,6.66
2023-02-17T02:38:07.065Z,6.62
2023-02-17T02:40:40.155Z,6.58
2023-02-17T02:43:07.682Z,6.57
2023-02-17T02:45:35.462Z,6.60
2023-02-17T02:48:04.190Z,6.63
2023-02-17T02:50:54.386Z,6.68
2023-02-17T02:53:49.339Z,6.72
2023-02-17T02:56:27.511Z,6.73
2023-02-17T02:59:06.889Z,6.78
2023-02-17T03:01:41.884Z,6.81
2023-02-17T03:04:17.817Z,6.82
2023-02-17T03:06:49.108Z,6.81
2023-02-17T03:09:20.505Z,6.81
2023-02-17T03:11:48.216Z,6.79
2023-02-17T03:14:17.563Z,6.76
2023-02-17T03:16:44.662Z,6.72
2023-02-17T03:19:14.804Z,6.69
2023-02-17T03:21:46.184Z,6.65
2023-02-17T03:24:13.048Z,6.62
2023-02-17T03:26:39.818Z,6.57
2023-02-17T03:29:07.107Z,6.55
2023-02-17T03:31:34.698Z,6.52
2023-02-17T03:34:02.749Z,6.50
2023-02-17T03:36:30.926Z,6.47
2023-02-17T03:38:57.800Z,6.44
2023-02-17T03:41:24.499Z,6.43
2023-02-17T03:43:51.665Z,6.43
2023-02-17T03:46:18.698Z,6.44
2023-02-17T03:48:45.466Z,6.44
2023-02-17T03:51:14.793Z,6.50
2023-02-17T03:53:43.614Z,6.57
2023-02-17T03:56:10.737Z,6.66
2023-02-17T03:58:37.974Z,6.76
2023-02-17T04:01:05.151Z,6.86
2023-02-17T04:03:32.395Z,6.95
2023-02-17T04:05:59.369Z,7.03
2023-02-17T04:08:26.445Z,7.06
2023-02-17T04:10:55.766Z,7.07
2023-02-17T04:13:22.691Z,7.11
2023-02-17T04:15:49.735Z,7.13
2023-02-17T04:18:17.456Z,7.19
2023-02-17T04:20:44.445Z,7.22
2023-02-17T04:23:11.449Z,7.25
2023-02-17T04:25:38.387Z,7.26
2023-02-17T04:28:08.060Z,7.26
2023-02-17T04:30:35.164Z,7.25
2023-02-17T04:33:02.218Z,7.28
2023-02-17T04:35:29.216Z,7.30
2023-02-17T04:37:55.892Z,7.33
2023-02-17T04:40:23.158Z,7.37
2023-02-17T04:42:49.824Z,7.37
2023-02-17T04:45:17.920Z,7.38
2023-02-17T04:47:44.569Z,7.42
2023-02-17T04:50:12.015Z,7.46
2023-02-17T04:52:39.025Z,7.48
2023-02-17T04:55:06.739Z,7.52
2023-02-17T04:57:33.810Z,7.57
2023-02-17T05:00:00.484Z,7.60
2023-02-17T05:02:29.059Z,7.64
2023-02-17T05:04:55.686Z,7.67
2023-02-17T05:07:23.384Z,7.70
2023-02-17T05:09:49.999Z,7.73
2023-02-17T05:12:16.957Z,7.77
2023-02-17T05:14:43.556Z,7.74
2023-02-17T05:17:10.389Z,7.75
2023-02-17T05:19:38.376Z,7.77
2023-02-17T05:22:05.096Z,7.77
2023-02-17T05:24:32.065Z,7.76
2023-02-17T05:26:58.683Z,7.75
2023-02-17T05:29:25.476Z,7.72
2023-02-17T05:31:52.164Z,7.72
2023-02-17T05:34:19.057Z,7.75
2023-02-17T05:36:50.309Z,7.78
2023-02-17T05:39:17.082Z,7.82
2023-02-17T05:41:43.685Z,7.86
2023-02-17T05:44:10.381Z,7.88
2023-02-17T05:46:37.130Z,7.90
2023-02-17T05:49:03.788Z,7.94
2023-02-17T05:51:30.508Z,7.95
2023-02-17T05:53:58.910Z,7.95
2023-02-17T05:56:25.652Z,7.90
2023-02-17T05:58:52.388Z,7.88
2023-02-17T06:01:19.228Z,7.86
2023-02-17T06:03:46.216Z,7.84
2023-02-17T06:06:12.866Z,7.76
2023-02-17T06:08:40.822Z,7.72
2023-02-17T06:11:09.376Z,7.68
2023-02-17T06:13:36.434Z,7.63
2023-02-17T06:16:03.865Z,7.60
2023-02-17T06:18:30.706Z,7.59
2023-02-17T06:20:57.920Z,7.56
2023-02-17T06:23:25.461Z,7.52
2023-02-17T06:25:52.347Z,7.48
2023-02-17T06:28:20.320Z,7.46
2023-02-17T06:30:47.004Z,7.44
2023-02-17T06:33:13.669Z,7.40
2023-02-17T06:35:40.553Z,7.39
2023-02-17T06:38:07.595Z,7.39
2023-02-17T06:40:34.287Z,7.39
2023-02-17T06:43:01.047Z,7.38
2023-02-17T06:45:29.140Z,7.40
2023-02-17T06:47:55.866Z,7.44
2023-02-17T06:50:22.731Z,7.55
2023-02-17T06:52:50.112Z,7.62
2023-02-17T06:55:17.083Z,7.68
2023-02-17T06:57:44.179Z,7.77
2023-02-17T07:00:11.670Z,7.89
2023-02-17T07:02:40.610Z,7.96
2023-02-17T07:05:08.216Z,8.00
2023-02-17T07:07:35.211Z,8.05
2023-02-17T07:10:03.297Z,8.12
2023-02-17T07:12:30.106Z,8.24
2023-02-17T07:14:56.947Z,8.40
2023-02-17T07:17:23.863Z,8.59
2023-02-17T07:19:51.853Z,8.78
2023-02-17T07:22:18.670Z,8.95
2023-02-17T07:24:45.622Z,9.19
2023-02-17T07:27:12.277Z,9.38
2023-02-17T07:29:38.971Z,9.55
2023-02-17T07:32:07.201Z,9.68
2023-02-17T07:34:33.868Z,9.82
2023-02-17T07:37:01.921Z,9.92
2023-02-17T07:39:28.584Z,10.03
2023-02-17T07:42:00.657Z,10.09
2023-02-17T07:44:27.987Z,10.14
2023-02-17T07:46:55.151Z,10.19
2023-02-17T07:53:50.784Z,10.39
2023-02-17T07:56:19.538Z,10.40
2023-02-17T07:58:46.307Z,10.52
2023-02-17T08:01:14.695Z,10.57
2023-02-17T08:03:41.850Z,10.60
2023-02-17T08:06:09.933Z,10.66
2023-02-17T08:08:55.697Z,10.70
2023-02-17T08:11:44.004Z,10.74
2023-02-17T08:14:13.197Z,10.79
2023-02-17T08:16:40.067Z,10.88
2023-02-17T08:19:07.686Z,10.96
2023-02-17T08:21:34.784Z,11.09
2023-02-17T08:24:01.450Z,11.16
2023-02-17T08:26:29.719Z,11.21
2023-02-17T08:28:56.592Z,11.27
2023-02-17T08:31:26.367Z,11.29
2023-02-17T08:33:53.712Z,11.36
2023-02-17T08:36:22.266Z,11.50
2023-02-17T08:38:51.227Z,11.64
2023-02-17T08:41:20.917Z,11.76
2023-02-17T08:43:50.009Z,11.80
2023-02-17T08:46:18.831Z,11.85
2023-02-17T08:48:46.011Z,11.93
2023-02-17T08:51:14.253Z,11.98
2023-02-17T08:53:40.931Z,12.04
2023-02-17T08:56:08.420Z,12.12
2023-02-17T08:58:38.873Z,12.20
2023-02-17T09:01:07.036Z,12.24
2023-02-17T09:03:34.076Z,12.30
2023-02-17T09:06:00.816Z,12.28
2023-02-17T09:08:27.512Z,12.29
2023-02-17T09:10:54.283Z,12.35
2023-02-17T09:13:21.065Z,12.38
2023-02-17T09:15:47.991Z,12.40
2023-02-17T09:18:16.599Z,12.37
2023-02-17T09:20:43.341Z,12.40
2023-02-17T09:23:10.182Z,12.40
2023-02-17T09:25:36.999Z,12.45
2023-02-17T09:28:04.030Z,12.47
2023-02-17T09:30:31.244Z,12.51
2023-02-17T09:32:58.951Z,12.48
2023-02-17T09:35:27.570Z,12.48
2023-02-17T09:37:54.431Z,12.56
2023-02-17T09:40:25.336Z,12.60
2023-02-17T09:42:52.043Z,12.62
2023-02-17T09:45:25.610Z,12.64
2023-02-17T09:47:55.084Z,12.61
2023-02-17T09:50:26.635Z,12.58
2023-02-17T09:52:59.728Z,12.66
2023-02-17T09:55:30.842Z,12.70
2023-02-17T09:58:06.126Z,12.75
2023-02-17T10:00:35.723Z,12.83
2023-02-17T10:03:10.270Z,12.91
2023-02-17T10:05:40.792Z,12.86
2023-02-17T10:08:16.945Z,12.87
2023-02-17T10:10:51.597Z,12.96
2023-02-17T10:13:21.980Z,13.03
2023-02-17T10:15:51.620Z,13.13
2023-02-17T10:18:26.434Z,13.23
2023-02-17T10:20:59.816Z,13.22
2023-02-17T10:23:29.440Z,13.20
2023-02-17T10:26:11.247Z,13.19
2023-02-17T10:28:50.785Z,13.31
2023-02-17T10:31:32.025Z,13.41
2023-02-17T10:34:03.985Z,13.33
2023-02-17T10:36:42.447Z,13.34
2023-02-17T10:39:14.583Z,13.38
2023-02-17T10:41:46.390Z,13.50
2023-02-17T10:44:17.694Z,13.60
2023-02-17T10:46:44.876Z,13.73
2023-02-17T10:49:20.377Z,14.01
2023-02-17T10:51:47.079Z,14.38
2023-02-17T10:54:25.518Z,14.54
2023-02-17T10:56:56.032Z,14.53
2023-02-17T10:59:27.975Z,14.53
2023-02-17T11:01:58.367Z,14.52
2023-02-17T11:04:25.122Z,14.48
2023-02-17T11:06:55.375Z,14.45
2023-02-17T11:09:33.273Z,14.40
2023-02-17T11:12:03.054Z,14.39
2023-02-17T11:14:32.064Z,14.47
2023-02-17T11:17:00.697Z,14.56
2023-02-17T11:19:29.504Z,14.55
2023-02-17T11:21:59.048Z,14.48
2023-02-17T11:24:28.837Z,14.42
2023-02-17T11:26:59.156Z,14.48
2023-02-17T11:29:26.784Z,14.53
2023-02-17T11:31:55.999Z,14.57
2023-02-17T11:34:25.256Z,14.66
2023-02-17T11:36:59.344Z,14.77
2023-02-17T11:39:27.891Z,14.84
2023-02-17T11:41:54.680Z,14.90
2023-02-17T11:44:25.805Z,14.88
2023-02-17T11:47:00.776Z,14.80
2023-02-17T11:49:44.039Z,14.77
2023-02-17T11:52:33.001Z,14.69
2023-02-17T11:55:15.721Z,14.66
2023-02-17T11:57:45.840Z,14.69
2023-02-17T12:00:17.842Z,14.87
2023-02-17T12:02:59.792Z,14.88
2023-02-17T12:05:35.806Z,14.89
2023-02-17T12:08:15.046Z,14.93
2023-02-17T12:11:00.508Z,15.12
2023-02-17T12:13:37.197Z,15.31
2023-02-17T12:16:18.592Z,15.32
2023-02-17T12:18:54.051Z,15.32
2023-02-17T12:21:43.879Z,15.30
2023-02-17T12:24:29.631Z,15.32
2023-02-17T12:27:06.165Z,15.21
2023-02-17T12:29:51.991Z,15.22
2023-02-17T12:32:33.663Z,15.24
2023-02-17T12:35:12.905Z,15.29
2023-02-17T12:37:48.749Z,15.24
2023-02-17T12:40:28.382Z,15.22
2023-02-17T12:43:00.478Z,15.18
2023-02-17T12:45:35.627Z,15.08
2023-02-17T12:48:07.033Z,15.01
2023-02-17T12:50:38.274Z,14.85
2023-02-17T12:53:13.178Z,14.70
2023-02-17T12:55:48.536Z,14.57
2023-02-17T12:58:21.514Z,14.46
2023-02-17T13:00:52.515Z,14.45
2023-02-17T13:03:19.496Z,14.47
2023-02-17T13:05:52.410Z,14.48
2023-02-17T13:08:23.147Z,14.51
2023-02-17T13:11:01.030Z,14.57
2023-02-17T13:13:31.492Z,14.59
2023-02-17T13:16:05.461Z,14.61
2023-02-17T13:18:34.177Z,14.70
2023-02-17T13:21:14.671Z,14.79
2023-02-17T13:23:43.003Z,14.82
2023-02-17T13:26:33.861Z,14.89
2023-02-17T13:29:17.996Z,14.88
2023-02-17T13:31:48.063Z,14.92
2023-02-17T13:34:25.709Z,15.02
2023-02-17T13:36:52.606Z,15.10
2023-02-17T13:39:35.834Z,15.24
2023-02-17T13:42:03.196Z,15.36
2023-02-17T13:44:34.041Z,15.49
2023-02-17T13:47:04.321Z,15.58
2023-02-17T13:49:33.951Z,15.53
2023-02-17T13:52:09.156Z,15.45
2023-02-17T13:54:36.072Z,15.36
2023-02-17T13:57:02.794Z,15.27
2023-02-17T13:59:31.652Z,15.22
2023-02-17T14:01:58.503Z,15.15
2023-02-17T14:04:28.068Z,15.02
2023-02-17T14:06:58.123Z,15.00
2023-02-17T14:09:26.793Z,15.01
2023-02-17T14:11:55.316Z,15.03
2023-02-17T14:14:24.771Z,15.04
2023-02-17T14:17:26.726Z,15.04
2023-02-17T14:19:53.415Z,15.03
2023-02-17T14:22:26.385Z,14.98
2023-02-17T14:25:03.116Z,14.89
2023-02-17T14:27:41.349Z,14.81
2023-02-17T14:30:15.827Z,14.77
2023-02-17T14:32:45.232Z,14.74
2023-02-17T14:35:30.322Z,14.78
2023-02-17T14:38:07.855Z,14.83
2023-02-17T14:40:35.415Z,14.87
2023-02-17T14:43:02.280Z,14.86
2023-02-17T14:45:30.702Z,14.88
2023-02-17T14:48:00.431Z,14.87
2023-02-17T14:50:30.258Z,14.86
2023-02-17T23:02:34.192Z,12.55
